Time;durP1;ratioP1;P1;durP2;ratioP2;P2;SDS_P1;SDS_P2;PMS_P1;PMS_P2;Temp;Humidity;BMP_temperature;BMP_pressure;BME280_temperature;BME280_humidity;BME280_pressure;Samples;Min_cycle;Max_cycle;Signal;HPM_P1;HPM_P2
2023/07/24 00:02:18;;;;;;;4.13;3.57;;;;;;;22.07;48.39;98176.66;5116455;27;41325;-80
2023/07/24 00:04:47;;;;;;;4.93;4.10;;;;;;;22.02;48.05;98177.19;5133943;27;39848;-81
2023/07/24 00:07:15;;;;;;;5.37;3.57;;;;;;;21.98;48.30;98166.94;5133827;27;41789;-82
2023/07/24 00:09:42;;;;;;;5.73;4.20;;;;;;;21.94;48.49;98162.94;5132951;27;42394;-84
2023/07/24 00:12:10;;;;;;;7.53;4.50;;;;;;;21.88;48.79;98163.69;5115500;27;41383;-82
2023/07/24 00:14:37;;;;;;;6.60;3.93;;;;;;;21.83;48.97;98150.75;5134240;27;40740;-82
2023/07/24 00:17:06;;;;;;;6.73;4.30;;;;;;;21.69;49.36;98124.63;5132302;27;40939;-84
2023/07/24 00:19:34;;;;;;;4.50;3.90;;;;;;;21.36;49.02;98072.91;5115259;27;43547;-84
2023/07/24 00:22:03;;;;;;;6.07;4.40;;;;;;;21.58;49.08;98104.34;5115177;27;42264;-82
2023/07/24 00:24:31;;;;;;;5.10;3.70;;;;;;;21.64;49.17;98118.94;5115955;27;39080;-83
2023/07/24 00:26:58;;;;;;;4.20;3.73;;;;;;;21.45;49.08;98099.59;5131838;27;42737;-83
2023/07/24 00:29:26;;;;;;;4.17;3.60;;;;;;;21.52;49.08;98110.47;5115096;27;42051;-84
2023/07/24 00:31:54;;;;;;;5.17;3.70;;;;;;;21.46;49.05;98095.03;5132641;27;42358;-83
2023/07/24 00:34:21;;;;;;;6.83;3.70;;;;;;;21.42;49.83;98093.72;5134913;27;38949;-82
2023/07/24 00:36:49;;;;;;;6.17;3.40;;;;;;;21.35;49.50;98109.78;5153729;27;41879;-82
2023/07/24 00:39:18;;;;;;;5.87;3.60;;;;;;;21.14;49.78;98080.81;5133861;27;43588;-82
2023/07/24 00:41:45;;;;;;;3.87;3.47;;;;;;;21.21;49.54;98109.75;5133807;27;43088;-82
2023/07/24 00:44:13;;;;;;;5.90;4.20;;;;;;;20.98;49.87;98080.97;5116233;27;38704;-81
2023/07/24 00:46:40;;;;;;;4.93;3.80;;;;;;;21.02;50.26;98093.03;5133403;27;41679;-82
2023/07/24 00:49:09;;;;;;;4.33;3.70;;;;;;;20.98;50.18;98094.41;5133474;27;42547;-81
2023/07/24 00:51:37;;;;;;;5.90;4.03;;;;;;;20.92;50.38;98083.50;5116519;27;42321;-83
2023/07/24 00:54:06;;;;;;;5.67;4.10;;;;;;;20.87;50.37;98076.00;5116908;27;40102;-82
2023/07/24 00:56:36;;;;;;;6.80;3.90;;;;;;;20.95;50.58;98094.78;5116182;27;41235;-83
2023/07/24 00:59:03;;;;;;;4.57;3.87;;;;;;;20.97;50.34;98087.34;5115833;27;42873;-83
2023/07/24 01:01:31;;;;;;;5.33;4.00;;;;;;;20.98;50.21;98086.34;5115606;27;41635;-82
2023/07/24 01:03:59;;;;;;;5.77;4.40;;;;;;;20.91;50.74;98069.22;5133240;27;39152;-85
2023/07/24 01:06:27;;;;;;;5.30;4.60;;;;;;;20.91;50.58;98074.59;5115672;27;41951;-82
2023/07/24 01:08:54;;;;;;;6.20;4.47;;;;;;;21.02;50.64;98093.03;5132488;27;42933;-82
2023/07/24 01:11:28;;;;;;;4.83;4.30;;;;;;;20.93;50.92;98075.28;5113722;27;41294;-84
2023/07/24 01:14:03;;;;;;;5.63;4.67;;;;;;;20.98;50.96;98080.13;5131939;27;39123;-84
2023/07/24 01:16:37;;;;;;;6.17;4.23;;;;;;;21.00;50.90;98092.38;5114034;27;40688;-82
2023/07/24 01:19:10;;;;;;;9.03;4.90;;;;;;;21.01;50.92;98090.53;5128579;27;43027;-82
2023/07/24 01:21:52;;;;;;;7.03;5.10;;;;;;;20.90;50.94;98067.53;5131515;27;42241;-82
2023/07/24 01:24:35;;;;;;;6.70;5.17;;;;;;;21.00;51.39;98073.53;5128662;27;40658;-82
2023/07/24 01:27:05;;;;;;;5.87;5.07;;;;;;;20.90;51.53;98055.94;5114185;27;41684;-82
2023/07/24 01:29:33;;;;;;;6.80;5.23;;;;;;;20.98;51.35;98067.50;5114458;27;43123;-83
2023/07/24 01:32:01;;;;;;;6.23;5.20;;;;;;;20.98;51.71;98064.81;5131519;27;42318;-84
2023/07/24 01:34:28;;;;;;;6.20;4.97;;;;;;;20.86;51.62;98055.47;5114530;27;38639;-84
2023/07/24 01:36:56;;;;;;;6.40;5.30;;;;;;;20.93;51.56;98061.81;5113995;27;40633;-83
2023/07/24 01:39:24;;;;;;;5.50;5.00;;;;;;;20.90;52.03;98061.31;5113833;27;42104;-82
2023/07/24 01:41:52;;;;;;;6.30;4.80;;;;;;;20.84;52.09;98051.28;5114704;27;41296;-83
2023/07/24 01:44:21;;;;;;;5.30;4.80;;;;;;;20.84;51.94;98062.91;5132542;27;42041;-83
2023/07/24 01:46:48;;;;;;;6.50;5.43;;;;;;;20.78;52.26;98056.38;5118460;27;41041;-83
2023/07/24 01:49:16;;;;;;;5.83;4.73;;;;;;;20.74;52.01;98051.53;5118899;27;41808;-84
2023/07/24 01:51:45;;;;;;;5.60;4.63;;;;;;;20.75;52.36;98047.84;5135517;27;41861;-82
2023/07/24 01:54:12;;;;;;;6.33;5.47;;;;;;;20.63;52.26;98038.50;5117226;27;38939;-81
2023/07/24 01:56:41;;;;;;;5.53;4.70;;;;;;;20.67;52.02;98039.81;5117481;27;41980;-81
2023/07/24 01:59:08;;;;;;;4.87;4.03;;;;;;;20.56;52.15;98026.78;5117604;27;43109;-83
2023/07/24 02:01:37;;;;;;;6.20;4.87;;;;;;;20.56;52.14;98037.53;5117157;27;42304;-83
2023/07/24 02:04:05;;;;;;;4.83;4.30;;;;;;;20.56;52.16;98038.38;5134849;27;40908;-81
2023/07/24 02:06:34;;;;;;;4.63;4.03;;;;;;;20.53;51.89;98038.72;5117177;27;41781;-83
2023/07/24 02:09:01;;;;;;;4.77;4.03;;;;;;;20.49;52.16;98042.81;5134598;27;43097;-82
2023/07/24 02:11:29;;;;;;;5.50;4.27;;;;;;;20.32;52.23;98025.91;5134680;27;42500;-83
2023/07/24 02:13:57;;;;;;;5.17;4.33;;;;;;;20.36;51.98;98039.88;5117516;27;39077;-82
2023/07/24 02:16:24;;;;;;;4.90;4.33;;;;;;;19.92;52.20;97980.41;5135580;27;42833;-82
2023/07/24 02:18:54;;;;;;;5.73;4.77;;;;;;;20.22;52.07;98049.47;5134204;27;42795;-81
2023/07/24 02:21:21;;;;;;;4.67;3.90;;;;;;;20.04;52.36;98030.06;5134403;27;42235;-81
2023/07/24 02:23:49;;;;;;;5.20;4.20;;;;;;;20.07;52.76;98037.78;5117076;27;38869;-83
2023/07/24 02:26:17;;;;;;;6.27;4.60;;;;;;;20.00;53.07;98036.84;5134161;27;41682;-83
2023/07/24 02:28:44;;;;;;;6.30;4.70;;;;;;;19.84;52.97;98015.41;5134143;27;41750;-82
2023/07/24 02:31:13;;;;;;;4.17;3.67;;;;;;;19.89;53.40;98029.16;5133896;27;42698;-82
2023/07/24 02:33:41;;;;;;;4.10;3.67;;;;;;;19.86;53.27;98035.72;5134230;27;40196;-82
2023/07/24 02:36:10;;;;;;;5.47;4.53;;;;;;;19.86;53.69;98029.50;5134024;27;41857;-83
2023/07/24 02:38:38;;;;;;;5.13;4.17;;;;;;;19.86;54.88;98034.88;5134072;27;42789;-81
2023/07/24 02:41:08;;;;;;;5.77;4.50;;;;;;;19.85;54.79;98030.50;5133464;27;42263;-83
2023/07/24 02:43:37;;;;;;;7.70;4.87;;;;;;;19.85;54.91;98030.50;5135569;27;41035;-83
2023/07/24 02:46:05;;;;;;;5.87;4.77;;;;;;;19.84;55.64;98032.34;5135154;27;42579;-83
2023/07/24 02:48:32;;;;;;;7.27;5.53;;;;;;;19.69;54.85;98016.13;5118003;27;41509;-82
2023/07/24 02:51:00;;;;;;;6.47;4.97;;;;;;;19.81;55.03;98038.06;5117124;27;41214;-84
2023/07/24 02:53:30;;;;;;;5.70;4.93;;;;;;;19.66;55.54;98008.41;5118089;27;38791;-81
2023/07/24 02:55:59;;;;;;;8.53;5.30;;;;;;;19.63;57.20;97987.28;5135598;27;20229;-82
2023/07/24 02:58:27;;;;;;;8.03;5.63;;;;;;;19.76;57.63;98010.06;5117146;27;42873;-83
2023/07/24 03:00:54;;;;;;;7.03;5.50;;;;;;;19.73;57.36;98014.78;5117407;27;40846;-82
2023/07/24 03:03:22;;;;;;;7.37;5.63;;;;;;;19.70;56.91;98015.13;5117929;27;38935;-82
2023/07/24 03:05:50;;;;;;;7.30;5.43;;;;;;;19.69;56.82;98024.19;5134884;27;41901;-84
2023/07/24 03:08:17;;;;;;;5.17;4.50;;;;;;;19.62;56.57;98012.47;5117785;27;41820;-82
2023/07/24 03:10:46;;;;;;;6.23;5.27;;;;;;;19.67;56.46;98034.25;5115340;27;41244;-84
2023/07/24 03:13:17;;;;;;;5.67;4.60;;;;;;;19.62;56.73;98012.47;5130549;27;40055;-83
2023/07/24 03:15:44;;;;;;;5.87;4.90;;;;;;;19.66;56.62;97999.50;5116488;27;40410;-83
2023/07/24 03:18:12;;;;;;;5.50;5.00;;;;;;;19.60;57.17;97987.63;5116349;27;41962;-84
2023/07/24 03:20:39;;;;;;;6.27;5.30;;;;;;;19.63;56.62;97981.91;5116118;27;42335;-81
2023/07/24 03:23:07;;;;;;;7.27;5.50;;;;;;;19.55;57.66;97965.81;5133724;27;41635;-81
2023/07/24 03:25:35;;;;;;;6.43;5.17;;;;;;;19.56;58.34;97975.53;5116348;27;40792;-83
2023/07/24 03:28:05;;;;;;;8.23;5.67;;;;;;;19.54;57.74;97980.25;5133374;27;43669;-81
2023/07/24 03:30:33;;;;;;;6.13;4.73;;;;;;;19.45;57.84;97970.53;5115798;27;40816;-81
2023/07/24 03:33:01;;;;;;;6.13;5.43;;;;;;;19.38;57.85;97977.63;5133543;27;40124;-81
2023/07/24 03:35:29;;;;;;;5.07;4.53;;;;;;;19.15;58.01;97945.31;5133139;27;41933;-81
2023/07/24 03:37:56;;;;;;;5.97;4.77;;;;;;;19.17;57.59;97964.72;5115877;27;41807;-81
2023/07/24 03:40:24;;;;;;;5.57;4.23;;;;;;;19.13;57.42;97946.47;5116691;27;42076;-82
2023/07/24 03:42:53;;;;;;;4.33;3.90;;;;;;;19.14;57.56;97964.25;5134342;27;40034;-82
2023/07/24 03:45:22;;;;;;;5.00;4.37;;;;;;;18.74;57.49;97906.16;5133902;27;40783;-82
2023/07/24 03:47:50;;;;;;;4.47;4.03;;;;;;;19.00;57.46;97949.69;5134014;27;41660;-83
2023/07/24 03:50:18;;;;;;;4.73;3.83;;;;;;;18.93;57.59;97948.69;5133666;27;43293;-84
2023/07/24 03:52:45;;;;;;;5.30;4.13;;;;;;;18.89;57.73;97950.06;5134391;27;40453;-81
2023/07/24 03:55:13;;;;;;;5.53;4.17;;;;;;;18.92;57.54;97957.75;5116615;27;40815;-81
2023/07/24 03:57:41;;;;;;;5.87;4.17;;;;;;;18.89;57.75;97956.25;5130363;27;42049;-80
2023/07/24 04:00:10;;;;;;;6.07;4.60;;;;;;;18.76;57.74;97934.47;5157678;27;43077;-82
2023/07/24 04:02:42;;;;;;;4.90;4.03;;;;;;;18.77;57.66;97946.03;5139452;27;40235;-83
2023/07/24 04:05:09;;;;;;;4.90;4.40;;;;;;;18.87;57.71;97969.00;5133924;27;42517;-81
2023/07/24 04:07:38;;;;;;;5.43;4.20;;;;;;;18.86;57.78;97970.00;5133983;27;42917;-82
2023/07/24 04:10:07;;;;;;;5.73;4.63;;;;;;;18.87;58.07;97974.38;5114699;27;42410;-81
2023/07/24 04:12:33;;;;;;;5.57;4.67;;;;;;;18.91;57.87;97975.72;5132761;27;41114;-81
2023/07/24 04:15:01;;;;;;;5.63;4.37;;;;;;;19.03;57.71;97968.16;5115677;27;40980;-81
2023/07/24 04:17:29;;;;;;;4.57;4.10;;;;;;;19.09;57.83;97961.25;5132935;27;43504;-82
2023/07/24 04:19:58;;;;;;;5.10;4.20;;;;;;;19.14;57.93;97962.41;5115375;27;42458;-83
2023/07/24 04:22:26;;;;;;;6.23;4.97;;;;;;;19.17;57.72;97969.25;5132880;27;38903;-83
2023/07/24 04:24:54;;;;;;;7.33;5.80;;;;;;;19.22;58.01;97964.22;5132296;27;41341;-81
2023/07/24 04:27:22;;;;;;;6.90;5.03;;;;;;;19.23;58.80;97969.44;5115674;27;42072;-81
2023/07/24 04:29:49;;;;;;;5.20;4.70;;;;;;;19.19;58.79;97967.25;5132350;27;42289;-82
2023/07/24 04:32:17;;;;;;;6.23;5.03;;;;;;;19.41;59.11;97990.66;5134133;27;40040;-82
2023/07/24 04:34:45;;;;;;;7.67;5.30;;;;;;;19.50;59.76;97960.16;5133462;27;41634;-81
2023/07/24 04:37:14;;;;;;;6.73;5.00;;;;;;;19.78;59.76;97951.63;5132490;27;41767;-82
2023/07/24 04:39:42;;;;;;;5.70;5.10;;;;;;;19.98;59.61;97953.69;5115133;27;40835;-83
2023/07/24 04:42:10;;;;;;;6.20;5.27;;;;;;;20.22;59.99;97950.00;5133647;27;39253;-81
2023/07/24 04:44:37;;;;;;;7.67;6.03;;;;;;;20.46;60.12;97950.88;5133408;27;42543;-83
2023/07/24 04:47:05;;;;;;;7.40;6.23;;;;;;;20.67;59.68;97956.41;5133440;27;42596;-83
2023/07/24 04:49:33;;;;;;;6.43;5.40;;;;;;;20.80;59.58;97949.38;5115891;27;41178;-82
2023/07/24 04:52:01;;;;;;;8.40;6.10;;;;;;;20.92;59.43;97948.94;5115769;27;38962;-82
2023/07/24 04:54:30;;;;;;;8.73;5.93;;;;;;;20.96;58.99;97945.72;5133310;27;41807;-83
2023/07/24 04:56:57;;;;;;;8.00;5.67;;;;;;;20.94;58.75;97923.53;5115511;27;41397;-83
2023/07/24 04:59:25;;;;;;;6.23;5.07;;;;;;;21.14;58.60;97937.28;5115659;27;40997;-82
2023/07/24 05:01:53;;;;;;;6.43;5.50;;;;;;;21.18;58.69;97943.97;5132870;27;40960;-83
2023/07/24 05:04:21;;;;;;;5.80;4.97;;;;;;;21.22;58.62;97952.53;5115690;27;40706;-81
2023/07/24 05:06:49;;;;;;;8.43;6.37;;;;;;;21.23;59.03;97921.91;5115587;27;42033;-83
2023/07/24 05:09:16;;;;;;;6.73;5.73;;;;;;;21.48;58.70;97958.31;5132467;27;42372;-83
2023/07/24 05:11:46;;;;;;;8.33;5.77;;;;;;;21.49;58.77;97933.03;5113666;27;39848;-81
2023/07/24 05:14:13;;;;;;;6.23;5.60;;;;;;;21.50;59.04;97918.56;5131538;27;41013;-82
2023/07/24 05:16:41;;;;;;;6.70;5.43;;;;;;;21.73;58.97;97934.59;5131560;27;42497;-83
2023/07/24 05:19:08;;;;;;;7.47;6.20;;;;;;;21.86;58.73;97929.34;5132737;27;42256;-83
2023/07/24 05:21:36;;;;;;;7.67;6.17;;;;;;;21.99;59.19;97920.59;5113719;27;38791;-85
2023/07/24 05:24:04;;;;;;;7.23;5.70;;;;;;;22.04;58.79;97904.69;5114277;27;40898;-84
2023/07/24 05:26:32;;;;;;;7.03;6.33;;;;;;;22.28;58.77;97912.38;5114203;27;42936;-83
2023/07/24 05:29:01;;;;;;;9.13;6.90;;;;;;;22.39;58.79;97909.16;5131496;27;41899;-82
2023/07/24 05:31:29;;;;;;;8.23;6.63;;;;;;;22.56;58.87;97915.16;5114288;27;40043;-82
2023/07/24 05:33:57;;;;;;;7.27;6.30;;;;;;;22.73;58.84;97913.84;5131265;27;42242;-84
2023/07/24 05:36:25;;;;;;;8.13;6.70;;;;;;;22.93;58.39;97914.00;5131574;27;42785;-85
2023/07/24 05:38:53;;;;;;;8.23;6.13;;;;;;;23.10;58.04;97910.00;5131495;27;42985;-83
2023/07/24 05:41:20;;;;;;;7.37;6.27;;;;;;;23.41;57.53;97908.69;5133067;27;40046;-82
2023/07/24 05:43:48;;;;;;;9.70;6.60;;;;;;;23.74;56.69;97893.47;5133496;27;41629;-83
2023/07/24 05:46:17;;;;;;;8.20;6.53;;;;;;;24.11;55.92;97883.19;5115034;27;41751;-82
2023/07/24 05:48:45;;;;;;;9.27;7.50;;;;;;;24.40;55.24;97896.38;5115279;27;41193;-82
2023/07/24 05:51:13;;;;;;;12.90;7.63;;;;;;;24.59;54.62;97900.97;5114639;27;40334;-83
2023/07/24 05:53:40;;;;;;;8.27;6.90;;;;;;;24.63;54.39;97899.50;5132803;27;42794;-82
2023/07/24 05:56:08;;;;;;;8.57;6.33;;;;;;;24.84;54.46;97911.16;5132039;27;42878;-83
2023/07/24 05:58:36;;;;;;;8.33;6.27;;;;;;;24.92;53.49;97921.78;5115072;27;42172;-83
2023/07/24 06:01:04;;;;;;;9.70;7.20;;;;;;;24.95;53.43;97918.69;5120957;27;38962;-76
2023/07/24 06:03:33;;;;;;;7.90;6.63;;;;;;;24.92;53.55;97905.53;5108823;27;43253;-79
2023/07/24 06:06:00;;;;;;;8.87;6.77;;;;;;;25.06;53.28;97937.00;5110178;27;41806;-77
2023/07/24 06:08:28;;;;;;;10.00;7.40;;;;;;;25.07;53.30;97938.69;5125707;27;41356;-81
2023/07/24 06:10:56;;;;;;;9.10;7.40;;;;;;;24.91;53.24;97914.69;5105373;27;39270;-81
2023/07/24 06:13:23;;;;;;;8.53;7.20;;;;;;;25.11;53.18;97937.19;5130229;27;42787;-80
2023/07/24 06:15:53;;;;;;;7.93;6.83;;;;;;;25.15;53.18;97952.00;5129757;27;41868;-79
2023/07/24 06:18:20;;;;;;;8.03;7.13;;;;;;;25.18;53.05;97945.34;5130019;27;42299;-79
2023/07/24 06:20:53;;;;;;;7.47;6.43;;;;;;;25.15;52.74;97941.16;5130020;27;38948;-79
2023/07/24 06:23:21;;;;;;;7.30;6.60;;;;;;;25.12;52.33;97955.13;5128134;27;42245;-77
2023/07/24 06:25:49;;;;;;;7.87;6.40;;;;;;;25.09;53.02;97957.44;5111965;27;41812;-81
2023/07/24 06:28:16;;;;;;;7.07;6.27;;;;;;;25.04;52.97;97958.06;5129593;27;42554;-75
2023/07/24 06:30:44;;;;;;;9.17;6.67;;;;;;;24.98;52.90;97961.59;5128873;27;40009;-76
2023/07/24 06:33:11;;;;;;;7.77;6.37;;;;;;;24.92;53.19;97968.66;5131504;27;40809;-76
2023/07/24 06:35:39;;;;;;;7.77;6.20;;;;;;;24.95;52.77;97962.88;5132350;27;41546;-75
2023/07/24 06:38:09;;;;;;;10.13;7.07;;;;;;;24.99;53.02;97936.16;5133911;27;42240;-76
2023/07/24 06:40:37;;;;;;;9.70;7.03;;;;;;;25.20;52.37;97949.50;5132874;27;39913;-76
2023/07/24 06:43:04;;;;;;;7.87;6.60;;;;;;;25.29;52.41;97942.81;5133911;27;41927;-77
2023/07/24 06:45:32;;;;;;;8.87;6.90;;;;;;;25.32;52.41;97928.84;5116199;27;43388;-79
2023/07/24 06:48:00;;;;;;;8.70;7.33;;;;;;;25.47;51.98;97944.03;5116960;27;42391;-80
2023/07/24 06:50:27;;;;;;;8.87;7.30;;;;;;;25.53;52.05;97944.00;5133558;27;38826;-79
2023/07/24 06:52:55;;;;;;;7.97;6.80;;;;;;;25.58;52.34;97938.78;5117553;27;42027;-83
2023/07/24 06:55:24;;;;;;;8.37;6.77;;;;;;;25.60;52.03;97941.25;5134980;27;43781;-83
2023/07/24 06:57:52;;;;;;;9.97;6.73;;;;;;;25.37;52.20;97909.22;5117157;27;42215;-86
2023/07/24 07:00:20;;;;;;;10.93;7.67;;;;;;;25.56;52.32;97931.91;5134166;27;39103;-78
2023/07/24 07:02:48;;;;;;;10.97;7.27;;;;;;;25.52;51.93;97938.78;5116993;27;41131;-83
2023/07/24 07:05:15;;;;;;;8.30;6.67;;;;;;;25.44;52.04;97922.75;5133761;27;42494;-82
2023/07/24 07:07:43;;;;;;;9.53;7.27;;;;;;;25.51;52.11;97920.84;5134763;27;41571;-80
2023/07/24 07:10:10;;;;;;;10.60;7.67;;;;;;;25.54;52.03;97912.28;5133013;27;40001;-73
2023/07/24 07:12:39;;;;;;;8.57;7.23;;;;;;;25.55;51.90;97903.13;5133556;27;41676;-82
2023/07/24 07:15:08;;;;;;;8.33;7.30;;;;;;;25.58;51.72;97897.28;5132150;27;43510;-78
2023/07/24 07:17:36;;;;;;;9.03;7.07;;;;;;;25.77;51.61;97913.47;5133684;27;42511;-77
2023/07/24 07:20:05;;;;;;;8.50;6.90;;;;;;;25.77;50.99;97896.38;5133176;27;40648;-77
2023/07/24 07:22:32;;;;;;;8.87;7.37;;;;;;;25.94;51.03;97905.69;5132235;27;41528;-76
2023/07/24 07:25:00;;;;;;;8.50;7.27;;;;;;;26.02;51.02;97900.00;5116886;27;43341;-77
2023/07/24 07:27:28;;;;;;;7.70;6.37;;;;;;;26.17;50.39;97912.44;5132236;27;42626;-76
2023/07/24 07:29:57;;;;;;;10.83;7.13;;;;;;;26.33;50.23;97911.97;5131679;27;39949;-75
2023/07/24 07:32:25;;;;;;;7.50;6.47;;;;;;;26.44;49.68;97920.25;5131884;27;41972;-74
2023/07/24 07:34:52;;;;;;;9.37;7.67;;;;;;;26.51;49.47;97919.34;5132754;27;42826;-74
2023/07/24 07:37:20;;;;;;;8.87;6.80;;;;;;;26.61;49.70;97909.66;5114620;27;41635;-74
2023/07/24 07:39:47;;;;;;;8.50;7.37;;;;;;;26.84;49.26;97926.19;5132647;27;39982;-73
2023/07/24 07:42:15;;;;;;;10.77;7.67;;;;;;;26.98;48.52;97926.09;5133896;27;42732;-74
2023/07/24 07:44:42;;;;;;;10.07;6.90;;;;;;;27.12;48.68;97927.63;5132828;27;42808;-73
2023/07/24 07:47:12;;;;;;;9.00;6.73;;;;;;;27.22;47.96;97932.56;5132855;27;41190;-76
2023/07/24 07:49:40;;;;;;;9.40;7.43;;;;;;;27.21;47.82;97929.00;5132527;27;39177;-75
2023/07/24 07:52:07;;;;;;;8.50;6.97;;;;;;;27.27;47.89;97925.41;5132338;27;40710;-74
2023/07/24 07:54:35;;;;;;;10.23;7.30;;;;;;;27.31;47.64;97934.78;5132757;27;43052;-74
2023/07/24 07:57:02;;;;;;;7.80;6.93;;;;;;;27.40;47.57;97929.88;5132530;27;41041;-73
2023/07/24 07:59:30;;;;;;;10.67;8.00;;;;;;;27.61;47.33;97931.34;5132314;27;40252;-76
2023/07/24 08:01:58;;;;;;;8.73;6.93;;;;;;;28.01;46.58;97923.50;5132445;27;41925;-74
2023/07/24 08:04:27;;;;;;;8.70;7.73;;;;;;;28.46;46.09;97932.09;5132009;27;42755;-75
2023/07/24 08:06:55;;;;;;;10.50;7.37;;;;;;;28.70;43.81;97913.91;5115927;27;42329;-81
2023/07/24 08:09:24;;;;;;;8.27;7.23;;;;;;;29.15;43.90;97944.22;5132205;27;39611;-79
2023/07/24 08:11:51;;;;;;;11.43;7.37;;;;;;;29.00;43.19;97946.59;5113814;27;40606;-78
2023/07/24 08:14:19;;;;;;;9.37;7.13;;;;;;;28.66;43.18;97938.09;5131282;27;41980;-79
2023/07/24 08:16:49;;;;;;;12.23;7.93;;;;;;;28.48;43.99;97941.72;5131319;27;42886;-77
2023/07/24 08:19:17;;;;;;;12.30;7.37;;;;;;;28.39;44.24;97923.22;5113934;27;41961;-76
2023/07/24 08:21:48;;;;;;;11.40;7.80;;;;;;;28.56;44.08;97935.13;5132662;27;42794;-79
2023/07/24 08:24:15;;;;;;;11.27;7.47;;;;;;;28.69;43.86;97939.50;5132467;27;42935;-77
2023/07/24 08:26:43;;;;;;;11.40;7.97;;;;;;;28.68;43.88;97938.69;5113911;27;41208;-78
2023/07/24 08:29:11;;;;;;;10.67;7.37;;;;;;;28.53;44.17;97941.03;5113727;27;41624;-77
2023/07/24 08:31:38;;;;;;;8.77;6.90;;;;;;;28.24;43.84;97932.63;5113734;27;42386;-77
2023/07/24 08:34:06;;;;;;;10.50;7.83;;;;;;;28.14;44.21;97943.22;5132039;27;42584;-77
2023/07/24 08:36:34;;;;;;;10.00;7.33;;;;;;;27.99;45.08;97956.41;5113254;27;41334;-76
2023/07/24 08:39:03;;;;;;;14.17;7.73;;;;;;;27.75;44.85;97960.03;5132144;27;40004;-74
2023/07/24 08:41:32;;;;;;;11.67;7.30;;;;;;;27.51;45.48;97970.75;5131655;27;41826;-77
2023/07/24 08:44:00;;;;;;;9.73;6.70;;;;;;;27.27;45.44;97963.47;5112685;27;41693;-79
2023/07/24 08:46:28;;;;;;;9.50;7.40;;;;;;;26.98;45.47;97962.25;5114629;27;42180;-83
2023/07/24 08:48:56;;;;;;;11.73;7.90;;;;;;;26.86;46.21;97971.31;5132185;27;40016;-80
2023/07/24 08:51:26;;;;;;;7.83;7.00;;;;;;;26.68;46.35;97943.03;5115024;27;40610;-81
2023/07/24 08:53:54;;;;;;;7.23;6.33;;;;;;;26.54;46.78;97940.63;5129984;27;42038;-84
2023/07/24 08:56:24;;;;;;;11.37;7.63;;;;;;;26.43;47.31;97937.56;5132200;27;42392;-82
2023/07/24 08:58:51;;;;;;;10.47;7.17;;;;;;;26.42;47.59;97932.38;5115949;27;39158;-83
2023/07/24 09:01:19;;;;;;;11.77;7.87;;;;;;;26.47;47.92;97946.94;5133437;27;41585;-88
2023/07/24 09:03:47;;;;;;;9.17;7.30;;;;;;;26.35;48.43;97928.84;5115593;27;42713;-83
2023/07/24 09:06:15;;;;;;;10.50;7.67;;;;;;;26.30;49.06;97923.25;5133524;27;42897;-87
2023/07/24 09:08:44;;;;;;;7.63;6.70;;;;;;;26.35;49.56;97934.28;5113885;27;39928;-83
2023/07/24 09:11:14;;;;;;;10.60;8.03;;;;;;;26.24;50.08;97935.78;5131002;27;41069;-81
2023/07/24 09:13:44;;;;;;;9.90;7.50;;;;;;;26.12;50.85;97930.22;5132493;27;42498;-79
2023/07/24 09:16:22;;;;;;;9.47;6.93;;;;;;;26.03;51.13;97934.22;5114534;27;41265;-79
2023/07/24 09:18:51;;;;;;;9.27;6.10;;;;;;;25.94;51.24;97923.84;5128438;27;40122;-87
2023/07/24 09:21:29;;;;;;;11.17;8.27;;;;;;;25.97;51.62;97917.97;5114552;27;42150;-84
2023/07/24 09:23:57;;;;;;;10.47;7.47;;;;;;;26.05;51.63;97924.00;5113785;27;41618;-79
2023/07/24 09:26:25;;;;;;;10.83;6.67;;;;;;;26.05;52.10;97926.72;5130715;27;42309;-82
2023/07/24 09:28:55;;;;;;;10.13;7.63;;;;;;;26.09;52.44;97908.91;5130602;27;40462;-79
2023/07/24 09:31:23;;;;;;;9.57;8.17;;;;;;;26.23;52.44;97911.56;5129907;27;42080;-82
2023/07/24 09:33:51;;;;;;;7.97;7.00;;;;;;;26.45;52.53;97899.34;5130207;27;42076;-79
2023/07/24 09:36:18;;;;;;;9.47;8.00;;;;;;;26.79;51.60;97890.72;5130467;27;43050;-81
2023/07/24 09:38:46;;;;;;;10.27;7.57;;;;;;;27.12;50.36;97895.03;5131671;27;39928;-80
2023/07/24 09:41:16;;;;;;;9.13;6.93;;;;;;;27.42;50.23;97890.53;5114552;27;40779;-84
2023/07/24 09:43:43;;;;;;;10.30;7.27;;;;;;;27.82;48.61;97884.59;5114710;27;41639;-84
2023/07/24 09:46:13;;;;;;;9.07;7.33;;;;;;;28.09;47.70;97890.50;5133187;27;43189;-85
2023/07/24 09:48:41;;;;;;;9.77;7.93;;;;;;;28.28;46.93;97891.34;5131482;27;39846;-79
2023/07/24 09:51:13;;;;;;;8.50;7.10;;;;;;;28.27;46.51;97876.91;5132122;27;41696;-78
2023/07/24 09:53:49;;;;;;;8.63;7.17;;;;;;;28.26;46.88;97866.22;5128943;27;42840;-78
2023/07/24 09:56:19;;;;;;;9.47;7.63;;;;;;;28.46;46.43;97869.47;5130071;27;43340;-76
2023/07/24 09:58:54;;;;;;;9.63;8.33;;;;;;;29.25;44.86;97868.94;5130725;27;41850;-78
2023/07/24 10:01:24;;;;;;;9.77;7.53;;;;;;;31.11;42.07;97890.25;5131177;27;42706;-76
2023/07/24 10:03:52;;;;;;;8.83;7.93;;;;;;;31.93;40.03;97902.03;5127660;27;43145;-85
2023/07/24 10:06:21;;;;;;;8.33;7.27;;;;;;;32.11;39.71;97892.66;5133257;27;41114;-84
2023/07/24 10:08:49;;;;;;;9.87;7.90;;;;;;;32.37;39.28;97891.88;5117758;27;38994;-80
2023/07/24 10:11:17;;;;;;;7.97;7.17;;;;;;;32.73;39.07;97901.28;5132637;27;40959;-79
2023/07/24 10:13:46;;;;;;;8.57;7.73;;;;;;;33.11;38.50;97902.09;5133446;27;43780;-77
2023/07/24 10:16:14;;;;;;;9.67;7.23;;;;;;;33.23;37.81;97899.16;5133545;27;42456;-80
2023/07/24 10:18:46;;;;;;;8.40;7.47;;;;;;;33.17;38.26;97901.88;5133438;27;40048;-78
2023/07/24 10:21:14;;;;;;;9.07;8.17;;;;;;;33.21;38.17;97906.84;5132544;27;41702;-76
2023/07/24 10:23:43;;;;;;;8.17;7.30;;;;;;;32.98;38.31;97894.34;5116212;27;41823;-77
2023/07/24 10:26:12;;;;;;;8.63;7.83;;;;;;;32.66;38.86;97894.31;5133014;27;41183;-78
2023/07/24 10:28:41;;;;;;;9.03;7.70;;;;;;;32.41;39.80;97889.41;5115937;27;39671;-77
2023/07/24 10:31:20;;;;;;;8.37;7.30;;;;;;;32.16;40.43;97906.38;5132958;27;42111;-78
2023/07/24 10:33:50;;;;;;;8.70;7.33;;;;;;;31.66;40.26;97895.66;5116041;27;41763;-82
2023/07/24 10:36:19;;;;;;;8.27;6.80;;;;;;;31.36;40.25;97934.38;5135372;27;43174;-86
2023/07/24 10:38:48;;;;;;;7.73;6.90;;;;;;;30.71;41.34;97893.94;5135389;27;40098;-85
2023/07/24 10:41:16;;;;;;;7.53;6.73;;;;;;;30.65;41.53;97919.56;5117998;27;40790;-84
2023/07/24 10:43:46;;;;;;;8.80;7.33;;;;;;;30.28;42.20;97898.09;5119325;27;42634;-81
2023/07/24 10:46:15;;;;;;;8.07;6.67;;;;;;;30.07;43.01;97882.41;5127168;27;42509;-81
2023/07/24 10:48:44;;;;;;;7.87;6.70;;;;;;;29.82;43.56;97865.50;5143545;27;41263;-82
2023/07/24 10:51:15;;;;;;;9.13;6.70;;;;;;;29.67;43.50;97853.19;5121280;27;41359;-88
2023/07/24 10:53:47;;;;;;;8.00;6.80;;;;;;;29.60;44.07;97838.03;5119938;27;41324;-83
2023/07/24 10:56:22;;;;;;;8.30;7.33;;;;;;;29.80;44.10;97849.34;5118925;27;41030;-85
2023/07/24 10:58:50;;;;;;;9.67;7.10;;;;;;;29.97;43.91;97865.81;5119901;27;38791;-86
2023/07/24 11:01:19;;;;;;;8.37;6.93;;;;;;;30.12;43.82;97868.84;5120047;27;41803;-89
2023/07/24 11:03:48;;;;;;;7.47;6.63;;;;;;;30.18;43.64;97851.47;5118193;27;41965;-89
2023/07/24 11:06:43;;;;;;;9.43;6.80;;;;;;;30.30;43.15;97863.16;5135115;27;41343;-90
2023/07/24 11:09:10;;;;;;;7.37;6.53;;;;;;;30.49;43.29;97884.81;5134012;27;40771;-87
2023/07/24 11:11:38;;;;;;;7.17;6.47;;;;;;;30.64;43.23;97887.84;5133473;27;42483;-88
2023/07/24 11:14:15;;;;;;;9.33;6.73;;;;;;;30.76;43.29;97891.31;5132808;27;43211;-82
2023/07/24 11:16:49;;;;;;;7.77;6.83;;;;;;;30.81;42.64;97871.41;5115495;27;41143;-77
2023/07/24 11:19:23;;;;;;;7.40;6.03;;;;;;;30.81;42.81;97877.72;5128971;27;40999;-80
2023/07/24 11:21:53;;;;;;;8.13;6.80;;;;;;;30.99;43.21;97879.38;5131341;27;41576;-81
2023/07/24 11:24:20;;;;;;;6.97;6.27;;;;;;;30.86;42.78;97860.56;5116373;27;41765;-85
2023/07/24 11:26:48;;;;;;;6.90;6.20;;;;;;;31.01;42.90;97882.69;5133709;27;41142;-87
2023/07/24 11:29:16;;;;;;;7.13;6.43;;;;;;;30.85;42.58;97880.78;5132802;27;41002;-82
2023/07/24 11:31:43;;;;;;;8.10;6.50;;;;;;;30.62;43.09;97868.13;5133501;27;41836;-84
2023/07/24 11:34:11;;;;;;;6.70;6.03;;;;;;;30.28;43.45;97838.00;5132878;27;41845;-87
2023/07/24 11:36:39;;;;;;;6.73;6.03;;;;;;;30.22;44.11;97858.09;5116114;27;41945;-82
2023/07/24 11:39:09;;;;;;;7.47;6.70;;;;;;;29.87;44.45;97830.13;5133151;27;41076;-85